Time;durP1;ratioP1;P1;durP2;ratioP2;P2;SDS_P1;SDS_P2;PMS_P1;PMS_P2;Temp;Humidity;BMP_temperature;BMP_pressure;BME280_temperature;BME280_humidity;BME280_pressure;Samples;Min_cycle;Max_cycle;Signal;HPM_P1;HPM_P2
2022/07/21 00:00:40;;;;;;;19.00;8.57;;;18.40;99.90;;;;;;5052387;28;20041;-26
2022/07/21 00:03:06;;;;;;;15.27;7.45;;;18.50;99.90;;;;;;5037611;28;20127;-26
2022/07/21 00:05:31;;;;;;;15.10;8.00;;;18.50;96.40;;;;;;5053407;28;20063;-26
2022/07/21 00:07:57;;;;;;;12.73;7.55;;;18.60;30.40;;;;;;5057364;28;20044;-26
2022/07/21 00:10:25;;;;;;;16.05;8.48;;;18.50;9.60;;;;;;5054495;28;20107;-26
2022/07/21 00:12:52;;;;;;;10.75;7.68;;;18.50;1.00;;;;;;5054231;28;20051;-26
2022/07/21 00:15:21;;;;;;;19.33;8.55;;;18.50;1.00;;;;;;5053524;28;20399;-26
2022/07/21 00:17:46;;;;;;;18.00;8.35;;;18.50;48.30;;;;;;5054428;28;20049;-26
2022/07/21 00:20:14;;;;;;;14.77;8.98;;;18.50;59.50;;;;;;5053588;28;20514;-26
2022/07/21 00:22:40;;;;;;;13.25;8.57;;;18.50;99.90;;;;;;5053365;28;20443;-26
2022/07/21 00:25:08;;;;;;;12.75;8.95;;;18.50;97.60;;;;;;5052662;28;20103;-27
2022/07/21 00:27:34;;;;;;;18.50;9.50;;;18.50;99.90;;;;;;5053210;28;20560;-26
2022/07/21 00:30:00;;;;;;;16.15;7.50;;;18.50;99.90;;;;;;5053557;28;20044;-26
2022/07/21 00:32:26;;;;;;;15.30;8.63;;;18.50;99.90;;;;;;5035589;28;20044;-26
2022/07/21 00:34:52;;;;;;;13.68;8.50;;;18.50;85.70;;;;;;5053739;28;20041;-26
2022/07/21 00:37:18;;;;;;;14.50;9.13;;;18.60;46.10;;;;;;5053392;28;20045;-26
2022/07/21 00:39:44;;;;;;;15.70;8.35;;;18.60;33.20;;;;;;5053326;28;20056;-26
2022/07/21 00:42:23;;;;;;;21.23;9.80;;;18.70;1.00;;;;;;5051862;28;20124;-26
2022/07/21 00:44:49;;;;;;;16.13;8.65;;;18.70;1.00;;;;;;5054877;28;20049;-26
2022/07/21 00:47:18;;;;;;;16.25;9.35;;;18.70;1.00;;;;;;5053915;28;20045;-26
2022/07/21 00:49:44;;;;;;;14.77;8.40;;;18.70;1.00;;;;;;5051935;28;20509;-26
2022/07/21 00:52:10;;;;;;;15.65;9.60;;;18.70;1.00;;;;;;5052153;28;20107;-26
2022/07/21 00:54:36;;;;;;;17.67;10.90;;;18.70;1.00;;;;;;5052553;28;20080;-26
2022/07/21 00:57:02;;;;;;;17.02;10.13;;;18.80;1.00;;;;;;5052574;28;20479;-26
2022/07/21 00:59:29;;;;;;;17.77;11.45;;;18.80;1.00;;;;;;5052700;28;20041;-26
2022/07/21 01:01:55;;;;;;;20.60;11.45;;;18.70;1.00;;;;;;5053711;28;20049;-26
2022/07/21 01:04:21;;;;;;;17.95;10.57;;;18.80;1.00;;;;;;5051851;28;20143;-27
2022/07/21 01:06:47;;;;;;;18.60;11.88;;;18.80;1.00;;;;;;5054929;28;20053;-26
2022/07/21 01:09:13;;;;;;;18.10;11.48;;;18.80;1.00;;;;;;5056521;28;20132;-26
2022/07/21 01:11:40;;;;;;;27.33;13.02;;;18.80;1.00;;;;;;5053614;28;20056;-24
2022/07/21 01:14:06;;;;;;;26.25;13.85;;;18.80;99.90;;;;;;5052720;28;20044;-21
2022/07/21 01:16:31;;;;;;;23.10;15.13;;;18.60;99.90;;;;;;5056030;28;20041;-20
2022/07/21 01:18:58;;;;;;;25.85;16.17;;;18.40;1.00;;;;;;5052890;28;20052;-19
2022/07/21 01:21:35;;;;;;;24.23;15.80;;;18.30;1.00;;;;;;5052055;28;20242;-20
2022/07/21 01:24:02;;;;;;;25.52;16.75;;;18.30;1.00;;;;;;5053034;28;20045;-19
2022/07/21 01:26:28;;;;;;;24.30;16.35;;;18.20;41.80;;;;;;5055269;28;20053;-20
2022/07/21 01:28:55;;;;;;;23.95;16.30;;;18.20;99.90;;;;;;5052981;28;20037;-21
2022/07/21 01:31:21;;;;;;;22.55;17.58;;;18.20;99.90;;;;;;5052709;28;20072;-20
2022/07/21 01:33:47;;;;;;;23.08;18.38;;;18.20;99.90;;;;;;5052041;28;20041;-20
2022/07/21 01:36:13;;;;;;;29.30;16.27;;;18.20;99.90;;;;;;5051829;28;20048;-20
2022/07/21 01:41:28;;;;;;;27.63;19.00;;;18.20;99.90;;;;;;5053106;28;20085;-20
2022/07/21 01:43:56;;;;;;;24.83;18.35;;;18.10;99.90;;;;;;5052632;28;20048;-20
2022/07/21 01:46:21;;;;;;;32.22;19.67;;;18.20;1.00;;;;;;5053268;28;20182;-19
2022/07/21 01:48:47;;;;;;;31.85;19.90;;;18.10;1.00;;;;;;5053315;28;20124;-19
2022/07/21 01:51:13;;;;;;;31.35;20.10;;;18.10;1.00;;;;;;5052538;28;20120;-20
2022/07/21 01:53:39;;;;;;;25.55;19.48;;;18.10;1.00;;;;;;5051144;28;20541;-19
2022/07/21 01:56:06;;;;;;;30.45;20.42;;;18.10;1.00;;;;;;5051729;28;20041;-19
2022/07/21 01:58:32;;;;;;;29.85;19.95;;;18.10;1.00;;;;;;5050838;28;20076;-19
2022/07/21 02:00:58;;;;;;;31.55;21.60;;;18.00;20.00;;;;;;5052487;28;20055;-20
2022/07/21 02:03:24;;;;;;;32.47;21.17;;;18.00;33.40;;;;;;5054984;28;20049;-20
2022/07/21 02:05:49;;;;;;;35.65;22.42;;;18.00;54.60;;;;;;5055274;28;20095;-19
2022/07/21 02:08:15;;;;;;;37.30;22.75;;;18.00;99.90;;;;;;5059927;28;20076;-20
2022/07/21 02:10:41;;;;;;;37.53;24.13;;;18.00;99.90;;;;;;5054923;28;20399;-20
2022/07/21 02:13:07;;;;;;;37.70;23.27;;;18.00;99.90;;;;;;5054887;28;20056;-20
2022/07/21 02:15:32;;;;;;;38.00;23.38;;;18.00;99.90;;;;;;5056695;28;20124;-20
2022/07/21 02:17:59;;;;;;;32.10;21.88;;;18.00;99.90;;;;;;5056992;28;20040;-20
2022/07/21 02:20:25;;;;;;;38.05;23.88;;;18.00;99.90;;;;;;5054397;28;20414;-21
2022/07/21 02:22:52;;;;;;;40.08;25.25;;;17.90;99.90;;;;;;5054853;28;20049;-20
2022/07/21 02:25:18;;;;;;;37.30;23.05;;;17.90;99.90;;;;;;5055744;28;20183;-20
2022/07/21 02:27:46;;;;;;;47.45;28.77;;;17.90;99.90;;;;;;5037615;28;20045;-21
2022/07/21 02:30:13;;;;;;;43.90;25.40;;;17.90;99.90;;;;;;5055854;28;20072;-21
2022/07/21 02:32:39;;;;;;;46.05;27.52;;;17.90;99.90;;;;;;5056401;28;20487;-20
2022/07/21 02:35:05;;;;;;;48.75;27.80;;;17.80;99.90;;;;;;5055775;28;20051;-21
2022/07/21 02:37:31;;;;;;;38.47;24.20;;;17.80;99.90;;;;;;5056340;28;20086;-21
2022/07/21 02:39:57;;;;;;;35.50;20.75;;;17.70;99.90;;;;;;5059074;28;20083;-21
2022/07/21 02:42:23;;;;;;;43.10;24.63;;;17.70;99.90;;;;;;5055523;28;20045;-22
2022/07/21 02:44:48;;;;;;;38.97;23.77;;;17.70;99.90;;;;;;5055037;28;20041;-21
2022/07/21 02:47:14;;;;;;;39.10;23.75;;;17.70;99.90;;;;;;5056474;28;20051;-22
2022/07/21 02:49:40;;;;;;;48.22;29.98;;;17.70;99.90;;;;;;5055363;28;20099;-22
2022/07/21 02:52:06;;;;;;;40.70;24.98;;;17.70;99.90;;;;;;5054987;28;20056;-22
2022/07/21 02:54:32;;;;;;;50.22;31.65;;;17.70;99.90;;;;;;5055253;28;20501;-22
2022/07/21 02:56:58;;;;;;;52.65;31.50;;;17.70;99.90;;;;;;5055026;28;20059;-23
2022/07/21 02:59:23;;;;;;;53.90;32.50;;;17.70;99.90;;;;;;5054861;28;20049;-23
2022/07/21 03:01:49;;;;;;;48.90;29.00;;;17.70;99.90;;;;;;5055461;28;20057;-24
2022/07/21 03:04:15;;;;;;;60.28;33.45;;;17.70;99.90;;;;;;5053792;28;20103;-24
2022/07/21 03:06:42;;;;;;;70.43;38.45;;;17.80;99.90;;;;;;5055894;28;20040;-24
2022/07/21 03:09:09;;;;;;;55.30;32.00;;;17.70;99.90;;;;;;5058562;28;20056;-24
2022/07/21 03:11:35;;;;;;;58.28;34.13;;;17.80;99.90;;;;;;5056118;28;20128;-24
2022/07/21 03:14:01;;;;;;;62.88;36.28;;;17.70;99.90;;;;;;5053655;28;20124;-23
2022/07/21 03:16:27;;;;;;;62.45;36.08;;;17.80;99.90;;;;;;5054803;28;20128;-23
2022/07/21 03:18:52;;;;;;;68.53;38.80;;;17.80;99.90;;;;;;5053678;28;20140;-23
2022/07/21 03:21:18;;;;;;;57.38;34.15;;;17.80;99.90;;;;;;5053307;28;20045;-24
2022/07/21 03:23:45;;;;;;;67.82;37.33;;;17.80;99.90;;;;;;5055531;28;20123;-23
2022/07/21 03:26:15;;;;;;;58.10;35.67;;;17.80;99.90;;;;;;5055304;28;20132;-24
2022/07/21 03:28:42;;;;;;;64.10;38.55;;;17.80;99.90;;;;;;5054834;28;20080;-24
2022/07/21 03:31:08;;;;;;;61.08;34.35;;;17.90;99.90;;;;;;5054581;28;20084;-23
2022/07/21 03:33:35;;;;;;;73.90;38.72;;;17.90;99.90;;;;;;5054456;28;20049;-24
2022/07/21 03:36:01;;;;;;;80.22;41.42;;;18.00;99.90;;;;;;5055148;28;20037;-24
2022/07/21 03:38:27;;;;;;;74.93;40.05;;;17.90;99.90;;;;;;5055206;28;20076;-23
2022/07/21 03:40:53;;;;;;;68.68;38.28;;;17.90;99.90;;;;;;5054499;28;20087;-23
2022/07/21 03:43:19;;;;;;;52.88;30.73;;;18.00;99.90;;;;;;5054113;28;20112;-25
2022/07/21 03:45:45;;;;;;;84.28;41.53;;;18.00;99.90;;;;;;5054552;28;20045;-24
2022/07/21 03:48:12;;;;;;;73.30;41.85;;;18.00;99.90;;;;;;5054307;28;20388;-24
2022/07/21 03:50:40;;;;;;;66.45;39.83;;;18.00;99.90;;;;;;5054956;28;20502;-24
2022/07/21 03:53:07;;;;;;;72.18;41.50;;;18.00;99.90;;;;;;5053632;28;20048;-26
2022/07/21 03:55:33;;;;;;;77.93;39.58;;;18.10;99.90;;;;;;5053658;28;20067;-27
2022/07/21 03:58:01;;;;;;;68.32;35.65;;;18.00;99.90;;;;;;5055370;28;20471;-26
2022/07/21 04:00:33;;;;;;;85.75;44.05;;;18.00;99.90;;;;;;5054019;28;20049;-26
2022/07/21 04:03:00;;;;;;;66.10;37.20;;;18.10;99.90;;;;;;5054153;28;20080;-27
2022/07/21 04:05:27;;;;;;;70.85;37.92;;;18.10;99.90;;;;;;5052807;28;20049;-26
2022/07/21 04:07:53;;;;;;;81.00;41.85;;;18.10;99.90;;;;;;5057406;28;20151;-27
2022/07/21 04:10:21;;;;;;;70.88;40.30;;;18.10;99.90;;;;;;5054532;28;20120;-27
2022/07/21 04:12:48;;;;;;;71.72;40.47;;;18.10;99.90;;;;;;5069973;28;20513;-27
2022/07/21 04:15:14;;;;;;;49.20;32.45;;;18.10;99.90;;;;;;5053239;28;20432;-28
2022/07/21 04:17:40;;;;;;;79.93;41.45;;;18.00;99.90;;;;;;5053888;28;20052;-27
2022/07/21 04:20:08;;;;;;;73.25;39.55;;;18.00;99.90;;;;;;5053644;28;20125;-27
2022/07/21 04:22:34;;;;;;;70.35;38.65;;;18.00;99.90;;;;;;5053499;28;20049;-27
2022/07/21 04:25:00;;;;;;;60.00;37.75;;;18.10;99.90;;;;;;5053008;28;20495;-28
2022/07/21 04:27:26;;;;;;;68.95;39.72;;;18.10;99.90;;;;;;5054143;28;20052;-27
2022/07/21 04:29:52;;;;;;;87.95;44.88;;;18.00;99.90;;;;;;5053510;28;20407;-27
2022/07/21 04:32:18;;;;;;;62.67;37.80;;;18.00;99.90;;;;;;5053335;28;20048;-27
2022/07/21 04:34:43;;;;;;;61.40;34.45;;;18.00;99.90;;;;;;5053295;28;20080;-27
2022/07/21 04:37:09;;;;;;;65.70;38.08;;;18.10;99.90;;;;;;5053493;28;20072;-27
2022/07/21 04:39:35;;;;;;;81.57;45.65;;;18.00;99.90;;;;;;5053316;28;20513;-28
2022/07/21 04:42:01;;;;;;;85.65;43.97;;;18.10;99.90;;;;;;5052847;28;20037;-29
2022/07/21 04:44:27;;;;;;;83.03;42.38;;;18.10;99.90;;;;;;5052512;28;20128;-28
2022/07/21 04:46:52;;;;;;;79.93;42.47;;;18.10;99.90;;;;;;5052573;28;20135;-27
2022/07/21 04:49:18;;;;;;;71.03;41.50;;;18.10;99.90;;;;;;5053192;28;20048;-28
2022/07/21 04:51:44;;;;;;;78.63;44.70;;;18.20;99.90;;;;;;5053880;28;20045;-27
2022/07/21 04:54:09;;;;;;;65.10;34.33;;;18.30;99.90;;;;;;5053045;28;20049;-27
2022/07/21 04:56:35;;;;;;;96.82;48.65;;;18.30;99.90;;;;;;5052819;28;20052;-27
2022/07/21 04:59:02;;;;;;;60.03;33.80;;;18.30;99.90;;;;;;5053180;28;20041;-28
2022/07/21 05:01:28;;;;;;;88.30;48.60;;;18.30;99.90;;;;;;5037244;28;20573;-28
2022/07/21 05:03:54;;;;;;;78.63;46.25;;;18.40;99.90;;;;;;5052858;28;20403;-28
2022/07/21 05:06:20;;;;;;;60.53;37.70;;;18.30;99.90;;;;;;5052130;28;20056;-28
2022/07/21 05:08:45;;;;;;;66.13;39.10;;;18.40;99.90;;;;;;5056482;28;20151;-28
2022/07/21 05:11:11;;;;;;;72.28;43.67;;;18.40;99.90;;;;;;5053312;28;20049;-28
2022/07/21 05:13:37;;;;;;;63.13;41.13;;;18.40;99.90;;;;;;5052894;28;20051;-28
2022/07/21 05:16:02;;;;;;;51.17;35.30;;;18.50;99.90;;;;;;5052695;28;20041;-28
2022/07/21 05:18:28;;;;;;;62.95;44.08;;;18.40;99.90;;;;;;5053574;28;20106;-28
2022/07/21 05:20:54;;;;;;;58.97;42.08;;;18.60;99.90;;;;;;5053546;28;20064;-28
2022/07/21 05:23:19;;;;;;;47.70;33.90;;;18.60;99.90;;;;;;5052001;28;20037;-28
2022/07/21 05:25:45;;;;;;;38.50;27.25;;;18.60;99.90;;;;;;5053524;28;20040;-27
2022/07/21 05:28:11;;;;;;;42.30;31.48;;;18.60;99.90;;;;;;5053449;28;20049;-27
2022/07/21 05:30:37;;;;;;;44.70;32.28;;;18.60;99.90;;;;;;5053657;28;20048;-27
2022/07/21 05:33:02;;;;;;;33.75;27.23;;;18.60;99.90;;;;;;5052034;28;20064;-28
2022/07/21 05:35:28;;;;;;;37.30;29.17;;;18.60;99.90;;;;;;5049787;28;20042;-28
2022/07/21 05:37:54;;;;;;;32.33;25.23;;;18.50;99.90;;;;;;5055532;28;20048;-28
2022/07/21 05:40:19;;;;;;;23.45;20.20;;;18.40;99.90;;;;;;5060253;28;20041;-28
2022/07/21 05:42:45;;;;;;;24.75;19.48;;;18.40;99.90;;;;;;5057384;28;20037;-28
2022/07/21 05:45:11;;;;;;;21.92;19.50;;;18.30;99.90;;;;;;5056623;28;20045;-29
2022/07/21 05:47:38;;;;;;;26.38;20.42;;;18.20;99.90;;;;;;5038521;28;20041;-27
2022/07/21 05:50:04;;;;;;;30.23;24.85;;;18.20;99.90;;;;;;5054944;28;20052;-27
2022/07/21 05:52:29;;;;;;;28.55;24.05;;;18.20;99.90;;;;;;5057899;28;20044;-28
2022/07/21 05:54:55;;;;;;;34.30;27.50;;;18.20;99.90;;;;;;5055315;28;20048;-28
2022/07/21 05:57:21;;;;;;;33.85;27.80;;;18.10;99.90;;;;;;5056492;28;20055;-28
2022/07/21 05:59:47;;;;;;;36.13;30.33;;;18.20;99.90;;;;;;5055944;28;20043;-28
2022/07/21 06:02:12;;;;;;;32.50;26.83;;;18.20;99.90;;;;;;5057268;28;20067;-27
2022/07/21 06:04:38;;;;;;;27.63;22.40;;;18.20;99.90;;;;;;5054824;28;20053;-29
2022/07/21 06:07:04;;;;;;;33.35;27.60;;;18.20;99.90;;;;;;5054949;28;20037;-28
2022/07/21 06:09:30;;;;;;;34.28;29.83;;;18.30;99.90;;;;;;5059685;28;20041;-28
2022/07/21 06:11:55;;;;;;;40.50;32.00;;;18.30;99.90;;;;;;5056580;28;20063;-27
2022/07/21 06:14:22;;;;;;;33.63;27.40;;;18.30;99.90;;;;;;5056002;28;20103;-28
2022/07/21 06:16:48;;;;;;;43.03;33.72;;;18.30;99.90;;;;;;5056774;28;20056;-29
2022/07/21 06:19:14;;;;;;;47.40;36.28;;;18.30;99.90;;;;;;5055637;28;20384;-28
2022/07/21 06:21:40;;;;;;;40.40;31.33;;;18.30;99.90;;;;;;5053674;28;20064;-29
2022/07/21 06:24:07;;;;;;;29.65;23.63;;;18.40;99.90;;;;;;5056987;28;20581;-28
2022/07/21 06:26:33;;;;;;;42.60;33.88;;;18.30;99.90;;;;;;5056540;28;20159;-28
2022/07/21 06:28:59;;;;;;;35.45;27.98;;;18.40;99.90;;;;;;5054932;28;20052;-31
2022/07/21 06:31:25;;;;;;;40.60;31.08;;;18.30;99.90;;;;;;5055471;28;20056;-28
2022/07/21 06:33:51;;;;;;;39.75;32.22;;;18.40;99.90;;;;;;5056517;28;20048;-28
2022/07/21 06:36:17;;;;;;;42.47;32.92;;;18.40;99.90;;;;;;5055507;28;20071;-28
2022/07/21 06:38:44;;;;;;;38.28;26.83;;;18.40;99.90;;;;;;5054908;28;20053;-28
2022/07/21 06:41:10;;;;;;;33.08;26.77;;;18.30;99.90;;;;;;5056304;28;20055;-27
2022/07/21 06:43:36;;;;;;;42.00;33.83;;;18.30;99.90;;;;;;5054102;28;20044;-28
2022/07/21 06:46:02;;;;;;;39.22;31.85;;;18.20;99.90;;;;;;5056480;28;20068;-28
2022/07/21 06:48:28;;;;;;;36.10;29.00;;;18.30;99.90;;;;;;5055308;28;20491;-28
2022/07/21 06:50:55;;;;;;;40.60;31.80;;;18.30;99.90;;;;;;5054536;28;20049;-27
2022/07/21 06:53:21;;;;;;;38.20;32.28;;;18.30;99.90;;;;;;5055204;28;20072;-30
2022/07/21 06:55:47;;;;;;;42.45;33.67;;;18.40;99.90;;;;;;5056012;28;20041;-28
2022/07/21 06:58:16;;;;;;;34.13;27.08;;;18.30;99.90;;;;;;5055995;28;20052;-28
2022/07/21 07:00:46;;;;;;;35.58;29.63;;;18.40;99.90;;;;;;5053468;28;20072;-28
2022/07/21 07:03:12;;;;;;;36.88;31.50;;;18.40;99.90;;;;;;5055933;28;20037;-27
2022/07/21 07:05:38;;;;;;;37.28;31.15;;;18.40;99.90;;;;;;5054143;28;20060;-29
2022/07/21 07:08:04;;;;;;;37.25;29.27;;;18.40;99.90;;;;;;5056240;28;20045;-28
2022/07/21 07:10:30;;;;;;;40.35;32.67;;;18.50;99.90;;;;;;5056113;28;20103;-28
2022/07/21 07:12:56;;;;;;;38.20;32.00;;;18.60;99.90;;;;;;5055514;28;20049;-28
2022/07/21 07:15:23;;;;;;;38.13;31.05;;;18.70;99.90;;;;;;5055608;28;20041;-27
2022/07/21 07:17:51;;;;;;;36.90;30.58;;;18.70;99.90;;;;;;5055126;28;20084;-28
2022/07/21 07:20:17;;;;;;;36.40;30.65;;;18.80;99.90;;;;;;5038036;28;20049;-27
2022/07/21 07:22:43;;;;;;;32.47;26.75;;;18.70;99.90;;;;;;5054824;28;20103;-27
2022/07/21 07:25:09;;;;;;;38.28;32.58;;;18.80;99.90;;;;;;5055362;28;20048;-27
2022/07/21 07:27:35;;;;;;;33.13;28.17;;;19.00;99.90;;;;;;5055407;28;20095;-29
2022/07/21 07:30:02;;;;;;;32.60;28.73;;;19.10;99.90;;;;;;5056777;28;20084;-27
2022/07/21 07:32:27;;;;;;;37.08;31.58;;;19.20;99.90;;;;;;5055496;28;20458;-27
2022/07/21 07:34:53;;;;;;;33.63;30.27;;;19.40;99.90;;;;;;5054676;28;20087;-27
2022/07/21 07:37:19;;;;;;;32.42;27.17;;;19.50;99.90;;;;;;5055224;28;20059;-27
2022/07/21 07:39:45;;;;;;;32.15;28.05;;;19.40;99.90;;;;;;5050891;28;20052;-27
2022/07/21 07:42:10;;;;;;;35.15;31.38;;;19.50;99.90;;;;;;5055461;28;20049;-27
2022/07/21 07:44:36;;;;;;;35.05;31.13;;;19.60;99.90;;;;;;5055162;28;20391;-27
2022/07/21 07:47:02;;;;;;;31.50;28.15;;;19.60;99.90;;;;;;5054064;28;20086;-27
2022/07/21 07:49:31;;;;;;;33.40;29.95;;;19.70;99.90;;;;;;5051648;28;20174;-27
2022/07/21 07:51:58;;;;;;;31.67;28.02;;;19.80;99.90;;;;;;5054294;28;20045;-27
2022/07/21 07:54:24;;;;;;;25.58;22.23;;;19.80;99.90;;;;;;5053821;28;20429;-27
2022/07/21 07:56:50;;;;;;;25.33;22.65;;;19.90;58.40;;;;;;5054706;28;20045;-27
2022/07/21 07:59:16;;;;;;;26.25;23.45;;;20.00;9.50;;;;;;5068415;28;20057;-26
2022/07/21 08:01:42;;;;;;;27.02;24.17;;;19.90;1.00;;;;;;5054821;28;20048;-27
2022/07/21 08:04:08;;;;;;;30.98;27.67;;;20.00;1.00;;;;;;5055012;28;20044;-27
2022/07/21 08:06:33;;;;;;;27.15;22.65;;;20.10;1.00;;;;;;5054447;28;20052;-26
2022/07/21 08:08:59;;;;;;;31.10;28.00;;;20.10;1.00;;;;;;5056478;28;20076;-27
2022/07/21 08:11:25;;;;;;;31.00;27.70;;;20.20;99.90;;;;;;5054247;28;20403;-26
2022/07/21 08:13:51;;;;;;;32.75;29.20;;;20.30;99.90;;;;;;5054668;28;20041;-26
2022/07/21 08:16:17;;;;;;;33.25;28.63;;;20.30;99.90;;;;;;5053241;28;20128;-26
2022/07/21 08:18:44;;;;;;;32.97;29.50;;;20.30;1.00;;;;;;5054438;28;20124;-27
2022/07/21 08:21:10;;;;;;;29.15;25.50;;;20.40;99.90;;;;;;5054417;28;20170;-26
2022/07/21 08:23:36;;;;;;;26.45;23.65;;;20.20;99.90;;;;;;5053553;28;20094;-26
2022/07/21 08:26:03;;;;;;;25.60;23.10;;;20.10;99.90;;;;;;5053214;28;20120;-26
2022/07/21 08:28:29;;;;;;;30.13;26.80;;;20.10;99.90;;;;;;5053241;28;20049;-25
2022/07/21 08:30:54;;;;;;;33.42;29.85;;;20.20;99.90;;;;;;5053201;28;20051;-26
2022/07/21 08:33:20;;;;;;;29.52;26.38;;;20.20;90.90;;;;;;5054706;28;20080;-26
2022/07/21 08:35:46;;;;;;;27.05;24.15;;;20.20;6.70;;;;;;5054050;28;20041;-25
2022/07/21 08:38:12;;;;;;;29.80;26.70;;;20.20;1.00;;;;;;5053070;28;20441;-25
2022/07/21 08:40:40;;;;;;;33.38;29.02;;;20.20;42.80;;;;;;5052881;28;20080;-25
2022/07/21 08:43:08;;;;;;;32.97;29.63;;;20.20;1.00;;;;;;5054029;28;20049;-25
2022/07/21 08:45:34;;;;;;;30.23;27.02;;;20.30;1.00;;;;;;5054493;28;20092;-25
2022/07/21 08:48:00;;;;;;;31.02;27.88;;;20.30;1.00;;;;;;5052760;28;20044;-25
2022/07/21 08:50:31;;;;;;;34.00;30.42;;;20.40;1.00;;;;;;5052217;28;20048;-25
2022/07/21 08:52:56;;;;;;;30.77;27.52;;;20.50;1.00;;;;;;5053094;28;20110;-25
2022/07/21 08:55:23;;;;;;;29.92;26.25;;;20.50;1.00;;;;;;5052538;28;20053;-24
2022/07/21 08:57:49;;;;;;;35.03;31.25;;;20.50;99.90;;;;;;5053682;28;20060;-25
2022/07/21 09:00:15;;;;;;;35.83;30.40;;;20.50;99.90;;;;;;5052630;28;20044;-25
2022/07/21 09:02:41;;;;;;;39.70;34.15;;;20.50;1.00;;;;;;5053115;28;20084;-25
2022/07/21 09:05:08;;;;;;;34.13;29.95;;;20.40;99.90;;;;;;5053788;28;20128;-25
2022/07/21 09:07:54;;;;;;;37.55;32.60;;;20.50;1.00;;;;;;5053512;28;20053;-24
2022/07/21 09:10:26;;;;;;;39.67;32.55;;;20.60;1.00;;;;;;5052568;28;20041;-24
2022/07/21 09:12:54;;;;;;;42.93;38.53;;;20.70;1.00;;;;;;5053017;28;20048;-25
2022/07/21 09:15:23;;;;;;;35.90;30.75;;;20.80;1.00;;;;;;5053323;28;20291;-24
2022/07/21 09:18:12;;;;;;;40.83;36.40;;;20.80;99.90;;;;;;5053358;28;20045;-25
2022/07/21 09:20:47;;;;;;;44.63;36.88;;;20.80;99.90;;;;;;5052387;28;20056;-24
2022/07/21 09:23:18;;;;;;;39.63;35.13;;;20.70;99.90;;;;;;5053110;28;20056;-24
2022/07/21 09:25:48;;;;;;;42.65;36.95;;;20.70;99.90;;;;;;5052441;28;20084;-24
2022/07/21 09:28:26;;;;;;;44.00;37.38;;;20.60;99.90;;;;;;5051727;28;20071;-25
2022/07/21 09:31:02;;;;;;;44.05;38.03;;;20.50;99.90;;;;;;5064013;28;20044;-24
2022/07/21 09:33:42;;;;;;;40.72;36.08;;;20.40;1.00;;;;;;5052014;28;20123;-24
2022/07/21 09:36:19;;;;;;;43.72;39.00;;;20.20;1.00;;;;;;5048995;28;20505;-24
2022/07/21 09:38:47;;;;;;;42.53;38.03;;;20.20;1.00;;;;;;5053356;28;20053;-24
2022/07/21 09:41:19;;;;;;;42.38;37.55;;;20.10;1.00;;;;;;5053512;28;20399;-24
2022/07/21 09:43:47;;;;;;;44.95;38.72;;;20.10;1.00;;;;;;5053306;28;20041;-24
2022/07/21 09:46:23;;;;;;;42.95;38.35;;;20.20;23.90;;;;;;5052977;28;20406;-24
2022/07/21 09:48:55;;;;;;;46.05;39.80;;;20.20;40.70;;;;;;5040693;28;20068;-24
2022/07/21 09:51:33;;;;;;;45.78;39.15;;;20.20;46.90;;;;;;5040121;28;20049;-24
2022/07/21 09:54:08;;;;;;;41.17;34.88;;;20.20;56.20;;;;;;5033926;28;20084;-23
2022/07/21 09:56:37;;;;;;;38.80;34.55;;;20.10;1.00;;;;;;5035135;28;20407;-24
2022/07/21 09:59:05;;;;;;;47.65;38.20;;;20.10;1.00;;;;;;5063071;28;20045;-24
2022/07/21 10:01:31;;;;;;;48.85;43.55;;;20.00;1.00;;;;;;5053403;28;20081;-23
2022/07/21 10:03:59;;;;;;;47.63;42.42;;;19.80;1.00;;;;;;5051929;28;20051;-24
2022/07/21 10:06:30;;;;;;;53.90;48.03;;;19.80;1.00;;;;;;5052981;28;20057;-23
2022/07/21 10:08:57;;;;;;;47.85;40.17;;;19.80;57.70;;;;;;5051243;28;20060;-24
2022/07/21 10:11:24;;;;;;;48.42;43.22;;;19.80;99.90;;;;;;5049589;28;20048;-25
2022/07/21 10:13:52;;;;;;;55.42;48.50;;;19.70;99.90;;;;;;5048502;28;20037;-24
2022/07/21 10:16:19;;;;;;;62.00;46.90;;;19.70;99.90;;;;;;5052609;28;20051;-24
2022/07/21 10:18:58;;;;;;;54.67;47.70;;;19.80;99.90;;;;;;5052558;28;20506;-24
2022/07/21 10:22:12;;;;;;;47.78;40.25;;;19.80;99.90;;;;;;5054249;28;20072;-24
2022/07/21 10:24:38;;;;;;;52.50;42.75;;;19.80;99.90;;;;;;5011861;28;20056;-24
2022/07/21 10:27:10;;;;;;;55.20;46.58;;;19.80;99.90;;;;;;5044348;28;20044;-24
2022/07/21 10:29:48;;;;;;;49.83;40.00;;;19.70;99.90;;;;;;5056537;28;20052;-23
2022/07/21 10:32:19;;;;;;;52.58;46.92;;;19.70;99.90;;;;;;5039731;28;20056;-23
2022/07/21 10:34:45;;;;;;;46.38;40.05;;;19.70;99.90;;;;;;5056416;28;20084;-24
2022/07/21 10:37:40;;;;;;;44.45;38.42;;;19.60;99.90;;;;;;5055356;28;20049;-24
2022/07/21 10:40:27;;;;;;;52.58;46.22;;;19.60;99.90;;;;;;5056358;28;20107;-23
2022/07/21 10:43:01;;;;;;;56.03;46.70;;;19.60;99.90;;;;;;5056527;28;20041;-23
2022/07/21 10:45:34;;;;;;;46.80;40.80;;;19.60;99.90;;;;;;5056816;28;20041;-23
2022/07/21 10:48:02;;;;;;;46.83;39.90;;;19.60;99.90;;;;;;5055178;28;20080;-24
2022/07/21 10:50:35;;;;;;;50.75;43.67;;;19.60;99.90;;;;;;5058237;28;20056;-23
2022/07/21 10:53:08;;;;;;;49.25;43.88;;;19.60;99.90;;;;;;5055260;28;20080;-24
2022/07/21 10:55:37;;;;;;;47.13;40.53;;;19.60;99.90;;;;;;5043318;28;20033;-24
2022/07/21 10:58:36;;;;;;;44.92;39.90;;;19.70;99.90;;;;;;5057593;28;20052;-23
2022/07/21 11:01:06;;;;;;;46.78;40.97;;;19.80;99.90;;;;;;5055502;28;20045;-24
2022/07/21 11:03:37;;;;;;;46.38;39.20;;;19.80;99.90;;;;;;5056331;28;20049;-24
2022/07/21 11:06:09;;;;;;;40.47;35.53;;;19.80;99.90;;;;;;5054982;28;20137;-23
2022/07/21 11:08:35;;;;;;;41.75;35.72;;;19.90;99.90;;;;;;5038079;28;20049;-23
2022/07/21 11:11:25;;;;;;;35.80;31.75;;;19.90;99.90;;;;;;5055618;28;20048;-23
2022/07/21 11:14:03;;;;;;;45.70;35.65;;;19.90;46.00;;;;;;5055978;28;20055;-23
2022/07/21 11:16:52;;;;;;;42.03;37.58;;;19.90;1.00;;;;;;5049652;28;20049;-24
2022/07/21 11:19:40;;;;;;;35.13;31.08;;;20.10;73.50;;;;;;5055503;28;20045;-23
2022/07/21 11:22:29;;;;;;;39.25;35.03;;;20.40;99.90;;;;;;5055747;28;20045;-23
2022/07/21 11:25:06;;;;;;;35.80;31.95;;;20.60;20.80;;;;;;5054315;28;20041;-23
2022/07/21 11:27:39;;;;;;;36.00;32.17;;;21.00;33.10;;;;;;5053609;28;20518;-23
2022/07/21 11:30:09;;;;;;;36.47;31.77;;;21.20;1.00;;;;;;5055881;28;20040;-24
2022/07/21 11:32:35;;;;;;;36.58;32.58;;;21.50;99.90;;;;;;5055748;28;20045;-24
2022/07/21 11:35:04;;;;;;;32.85;29.45;;;21.70;99.90;;;;;;5061292;28;20041;-24
2022/07/21 11:37:34;;;;;;;31.20;27.92;;;21.70;1.00;;;;;;5056982;28;20064;-23
2022/07/21 11:40:00;;;;;;;27.67;25.02;;;21.60;99.30;;;;;;5054921;28;20057;-24
2022/07/21 11:42:27;;;;;;;27.90;24.92;;;21.40;96.90;;;;;;5055560;28;20080;-24
2022/07/21 11:44:54;;;;;;;26.92;24.17;;;21.30;1.00;;;;;;5055219;28;20051;-24
2022/07/21 11:47:25;;;;;;;25.50;22.77;;;21.30;76.90;;;;;;5054320;28;20395;-24
2022/07/21 11:49:53;;;;;;;22.08;19.77;;;21.30;52.30;;;;;;5056293;28;20376;-24
2022/07/21 11:52:23;;;;;;;24.45;22.00;;;21.20;1.00;;;;;;5054674;28;20511;-24
2022/07/21 11:54:53;;;;;;;18.98;17.00;;;21.20;1.00;;;;;;5053063;28;20129;-24
2022/07/21 11:57:21;;;;;;;18.80;17.08;;;21.20;1.00;;;;;;5052568;28;20487;-24
2022/07/21 11:59:48;;;;;;;16.52;14.82;;;21.10;1.00;;;;;;5054680;28;20554;-24
2022/07/21 12:02:17;;;;;;;18.17;16.38;;;21.10;99.90;;;;;;5055745;28;20056;-24
2022/07/21 12:04:50;;;;;;;19.05;16.95;;;21.10;99.90;;;;;;5036560;28;20049;-24
2022/07/21 12:07:46;;;;;;;18.23;16.52;;;21.10;99.90;;;;;;5052181;28;20083;-24
2022/07/21 12:10:23;;;;;;;18.92;17.00;;;20.90;99.90;;;;;;5053570;28;20075;-24
2022/07/21 12:12:50;;;;;;;19.08;17.17;;;20.80;99.90;;;;;;5049734;28;20128;-24
2022/07/21 12:15:20;;;;;;;19.17;17.27;;;20.80;1.00;;;;;;5038839;28;20041;-25
2022/07/21 12:17:51;;;;;;;20.60;18.52;;;20.70;1.00;;;;;;5040079;28;20403;-25
2022/07/21 12:21:03;;;;;;;17.02;15.35;;;20.70;1.00;;;;;;5043622;28;20538;-25
2022/07/21 12:23:31;;;;;;;13.20;11.10;;;20.60;98.80;;;;;;5031130;28;20129;-24
2022/07/21 12:26:01;;;;;;;10.55;7.57;;;20.50;96.30;;;;;;5033744;28;20065;-24
2022/07/21 12:28:48;;;;;;;9.45;7.65;;;20.30;99.90;;;;;;5046298;28;20044;-24
2022/07/21 12:31:21;;;;;;;9.95;7.72;;;20.10;99.90;;;;;;5054095;28;20128;-24
2022/07/21 12:33:52;;;;;;;10.40;7.15;;;20.10;99.90;;;;;;5041927;28;20391;-24
2022/07/21 12:36:20;;;;;;;10.60;7.03;;;20.10;99.90;;;;;;5033787;28;20400;-24
2022/07/21 12:38:48;;;;;;;11.07;7.53;;;20.20;1.00;;;;;;5033271;28;20053;-24